createdAt,value
2018-02-27T00:02:07.883Z,4.27
2018-02-27T00:04:34.497Z,3.53
2018-02-27T00:07:01.093Z,4.27
2018-02-27T00:09:27.752Z,3.70
2018-02-27T00:11:54.681Z,4.33
2018-02-27T00:14:21.280Z,4.37
2018-02-27T00:16:47.911Z,4.57
2018-02-27T00:19:14.537Z,3.60
2018-02-27T00:21:41.143Z,3.67
2018-02-27T00:24:07.734Z,3.90
2018-02-27T00:26:34.513Z,4.97
2018-02-27T00:29:01.153Z,5.30
2018-02-27T00:31:27.756Z,5.80
2018-02-27T00:33:54.367Z,5.63
2018-02-27T00:36:20.971Z,5.03
2018-02-27T00:38:47.567Z,5.70
2018-02-27T00:41:14.144Z,5.43
2018-02-27T00:43:40.834Z,4.83
2018-02-27T00:46:07.416Z,4.23
2018-02-27T00:48:34.069Z,4.90
2018-02-27T00:51:00.677Z,6.73
2018-02-27T00:53:27.324Z,6.37
2018-02-27T00:55:53.913Z,4.87
2018-02-27T00:58:20.542Z,5.93
2018-02-27T01:00:47.288Z,6.33
2018-02-27T01:03:14.146Z,6.43
2018-02-27T01:05:40.773Z,6.63
2018-02-27T01:08:07.380Z,5.93
2018-02-27T01:10:33.990Z,6.30
2018-02-27T01:13:00.572Z,3.83
2018-02-27T01:15:27.217Z,5.20
2018-02-27T01:17:53.956Z,4.00
2018-02-27T01:20:20.813Z,4.40
2018-02-27T01:22:47.435Z,4.83
2018-02-27T01:25:14.038Z,5.03
2018-02-27T01:27:40.622Z,4.90
2018-02-27T01:30:07.249Z,4.63
2018-02-27T01:32:33.834Z,4.03
2018-02-27T01:35:00.441Z,4.13
2018-02-27T01:37:27.036Z,4.67
2018-02-27T01:39:53.646Z,4.13
2018-02-27T01:42:20.245Z,4.13
2018-02-27T01:44:47.108Z,4.30
2018-02-27T01:47:13.743Z,4.77
2018-02-27T01:49:40.350Z,4.47
2018-02-27T01:52:06.968Z,4.47
2018-02-27T01:54:33.556Z,4.13
2018-02-27T01:57:00.169Z,3.67
2018-02-27T01:59:26.756Z,3.37
2018-02-27T02:01:53.412Z,4.37
2018-02-27T02:04:19.995Z,5.23
2018-02-27T02:06:46.616Z,4.10
2018-02-27T02:09:13.237Z,5.30
2018-02-27T02:11:39.811Z,3.53
2018-02-27T02:14:06.436Z,4.03
2018-02-27T02:16:33.014Z,3.57
2018-02-27T02:18:59.613Z,4.07
2018-02-27T02:21:26.200Z,4.50
2018-02-27T02:23:52.843Z,3.73
2018-02-27T02:26:19.524Z,3.10
2018-02-27T02:28:46.130Z,3.13
2018-02-27T02:31:12.710Z,2.90
2018-02-27T02:33:39.349Z,4.10
2018-02-27T02:36:05.979Z,2.90
2018-02-27T02:38:32.603Z,3.00
2018-02-27T02:40:59.185Z,1.73
2018-02-27T02:43:25.792Z,2.53
2018-02-27T02:45:52.409Z,3.43
2018-02-27T02:48:19.003Z,3.90
2018-02-27T02:50:45.605Z,3.17
2018-02-27T02:53:12.185Z,3.40
2018-02-27T02:55:38.803Z,4.20
2018-02-27T02:58:05.462Z,4.30
2018-02-27T03:00:32.071Z,3.77
2018-02-27T03:02:58.684Z,4.20
2018-02-27T03:05:25.304Z,4.20
2018-02-27T03:07:51.929Z,4.20
2018-02-27T03:10:18.498Z,4.13
2018-02-27T03:12:45.103Z,3.60
2018-02-27T03:15:11.727Z,3.10
2018-02-27T03:17:38.345Z,3.80
2018-02-27T03:20:04.925Z,3.60
2018-02-27T03:22:31.567Z,4.03
2018-02-27T03:24:58.156Z,3.77
2018-02-27T03:27:24.756Z,4.20
2018-02-27T03:29:51.396Z,3.83
2018-02-27T03:32:17.988Z,4.07
2018-02-27T03:34:44.607Z,3.80
2018-02-27T03:37:11.197Z,4.07
2018-02-27T03:39:37.777Z,4.03
2018-02-27T03:42:04.401Z,3.10
2018-02-27T03:44:30.997Z,3.47
2018-02-27T03:46:57.597Z,3.80
2018-02-27T03:49:24.201Z,3.30
2018-02-27T03:51:50.791Z,2.87
2018-02-27T03:54:17.423Z,3.47
2018-02-27T03:56:44.011Z,3.00
2018-02-27T03:59:10.634Z,3.37
2018-02-27T04:01:37.219Z,3.33
2018-02-27T04:04:03.941Z,3.20
2018-02-27T04:06:30.515Z,2.93
2018-02-27T04:08:57.185Z,3.43
2018-02-27T04:11:23.784Z,3.60
2018-02-27T04:13:50.392Z,3.63
2018-02-27T04:16:17.064Z,3.90
2018-02-27T04:18:43.836Z,3.30
2018-02-27T04:21:10.422Z,3.53
2018-02-27T04:23:37.020Z,2.63
2018-02-27T04:26:03.704Z,3.50
2018-02-27T04:28:30.477Z,3.43
2018-02-27T04:30:57.089Z,3.50
2018-02-27T04:33:23.673Z,3.50
2018-02-27T04:35:50.301Z,3.77
2018-02-27T04:38:16.880Z,3.70
2018-02-27T04:40:43.532Z,3.50
2018-02-27T04:43:10.110Z,3.30
2018-02-27T04:45:36.728Z,3.57
2018-02-27T04:48:03.343Z,3.07
2018-02-27T04:50:30.001Z,3.27
2018-02-27T04:52:56.585Z,3.20
2018-02-27T04:55:23.377Z,3.13
2018-02-27T04:57:49.942Z,3.10
2018-02-27T05:00:16.530Z,3.63
2018-02-27T05:02:43.129Z,2.80
2018-02-27T05:05:09.717Z,3.53
2018-02-27T05:07:37.191Z,3.53
2018-02-27T05:10:03.774Z,3.77
2018-02-27T05:12:30.437Z,3.40
2018-02-27T05:14:57.098Z,3.30
2018-02-27T05:17:23.708Z,3.40
2018-02-27T05:19:50.288Z,3.20
2018-02-27T05:22:16.921Z,3.23
2018-02-27T05:24:43.600Z,3.17
2018-02-27T05:27:10.256Z,3.10
2018-02-27T05:29:36.858Z,2.27
2018-02-27T05:32:03.465Z,4.00
2018-02-27T05:34:30.188Z,4.10
2018-02-27T05:36:56.777Z,3.70
2018-02-27T05:39:23.400Z,3.50
2018-02-27T05:41:50.033Z,3.43
2018-02-27T05:44:16.606Z,3.83
2018-02-27T05:46:43.200Z,3.43
2018-02-27T05:49:09.835Z,2.73
2018-02-27T05:51:36.467Z,2.70
2018-02-27T05:54:03.072Z,2.80
2018-02-27T05:56:29.659Z,3.10
2018-02-27T05:58:56.276Z,3.50
2018-02-27T06:01:22.859Z,3.70
2018-02-27T06:03:49.479Z,2.77
2018-02-27T06:06:16.253Z,3.63
2018-02-27T06:08:42.937Z,3.57
2018-02-27T06:11:09.577Z,3.53
2018-02-27T06:13:36.159Z,2.90
2018-02-27T06:16:03.092Z,3.57
2018-02-27T06:18:29.673Z,3.40
2018-02-27T06:20:56.353Z,4.40
2018-02-27T06:23:23.004Z,3.37
2018-02-27T06:25:49.665Z,2.43
2018-02-27T06:28:16.265Z,4.43
2018-02-27T06:30:43.020Z,3.63
2018-02-27T06:33:09.629Z,3.70
2018-02-27T06:35:36.270Z,3.53
2018-02-27T06:38:02.872Z,4.10
2018-02-27T06:40:29.510Z,3.63
2018-02-27T06:42:56.109Z,3.40
2018-02-27T06:45:22.753Z,3.70
2018-02-27T06:47:49.327Z,4.70
2018-02-27T06:50:16.009Z,3.27
2018-02-27T06:52:42.930Z,4.20
2018-02-27T06:55:09.543Z,4.00
2018-02-27T06:57:36.174Z,3.10
2018-02-27T07:00:02.756Z,3.43
2018-02-27T07:02:29.367Z,4.27
2018-02-27T07:04:56.232Z,4.20
2018-02-27T07:07:22.916Z,4.53
2018-02-27T07:09:49.659Z,3.43
2018-02-27T07:12:16.415Z,4.33
2018-02-27T07:14:43.200Z,4.87
2018-02-27T07:17:09.914Z,4.70
2018-02-27T07:19:36.552Z,3.33
2018-02-27T07:22:03.175Z,4.27
2018-02-27T07:24:29.754Z,3.53
2018-02-27T07:26:56.428Z,4.37
2018-02-27T07:29:23.052Z,3.97
2018-02-27T07:31:49.740Z,4.57
2018-02-27T07:34:16.325Z,5.10
2018-02-27T07:36:43.021Z,4.70
2018-02-27T07:39:09.636Z,4.63
2018-02-27T07:41:36.332Z,4.43
2018-02-27T07:44:02.971Z,5.00
2018-02-27T07:46:29.572Z,2.90
2018-02-27T07:48:56.263Z,5.00
2018-02-27T07:51:22.909Z,5.10
2018-02-27T07:53:49.715Z,4.60
2018-02-27T07:56:16.359Z,5.13
2018-02-27T07:58:42.952Z,5.37
2018-02-27T08:01:09.584Z,4.93
2018-02-27T08:03:36.228Z,4.70
2018-02-27T08:06:02.878Z,5.47
2018-02-27T08:08:29.568Z,4.33
2018-02-27T08:10:56.188Z,6.13
2018-02-27T08:13:22.792Z,4.00
2018-02-27T08:15:49.506Z,6.27
2018-02-27T08:18:16.233Z,4.73
2018-02-27T08:20:42.827Z,5.33
2018-02-27T08:23:09.454Z,6.53
2018-02-27T08:25:36.124Z,5.37
2018-02-27T08:28:02.787Z,6.90
2018-02-27T08:30:29.400Z,6.87
2018-02-27T08:32:56.163Z,7.00
2018-02-27T08:35:22.774Z,6.03
2018-02-27T08:37:49.534Z,6.03
2018-02-27T08:40:16.207Z,5.50
2018-02-27T08:42:43.215Z,5.50
2018-02-27T08:45:09.792Z,5.83
2018-02-27T08:47:36.441Z,5.60
2018-02-27T08:50:03.116Z,5.70
2018-02-27T08:52:29.714Z,6.80
2018-02-27T08:54:56.514Z,5.93
2018-02-27T08:57:23.136Z,6.97
2018-02-27T08:59:49.762Z,7.53
2018-02-27T09:02:16.338Z,5.87
2018-02-27T09:04:42.964Z,6.53
2018-02-27T09:07:09.556Z,7.40
2018-02-27T09:09:36.259Z,6.60
2018-02-27T09:12:04.084Z,7.47
2018-02-27T09:14:30.739Z,8.07
2018-02-27T09:16:57.367Z,7.90
2018-02-27T09:19:24.034Z,6.23
2018-02-27T09:21:50.767Z,6.00
2018-02-27T09:24:17.404Z,7.50
2018-02-27T09:26:43.995Z,7.03
2018-02-27T09:29:10.660Z,7.30
2018-02-27T09:31:37.356Z,6.63
2018-02-27T09:34:04.095Z,8.03
2018-02-27T09:36:30.736Z,7.70
2018-02-27T09:38:57.591Z,7.60
2018-02-27T09:41:24.255Z,5.77
2018-02-27T09:43:50.893Z,7.23
2018-02-27T09:46:17.502Z,8.17
2018-02-27T09:48:44.163Z,7.20
2018-02-27T09:51:13.417Z,7.60
2018-02-27T09:53:40.012Z,8.03
2018-02-27T09:56:06.888Z,7.93
2018-02-27T09:58:33.826Z,6.07
2018-02-27T10:01:00.457Z,6.67
2018-02-27T10:03:27.071Z,6.33
2018-02-27T10:05:53.699Z,7.50
2018-02-27T10:08:20.343Z,6.27
2018-02-27T10:10:46.980Z,6.50
2018-02-27T10:13:13.717Z,5.83
2018-02-27T10:15:40.357Z,6.10
2018-02-27T10:18:06.949Z,6.70
2018-02-27T10:20:33.562Z,6.37
2018-02-27T10:23:00.237Z,5.80
2018-02-27T10:25:26.843Z,7.87
2018-02-27T10:27:53.518Z,8.80
2018-02-27T10:30:20.110Z,6.10
2018-02-27T10:32:46.799Z,6.20
2018-02-27T10:35:13.418Z,7.90
2018-02-27T10:37:40.102Z,6.70
2018-02-27T10:40:06.708Z,7.73
2018-02-27T10:42:33.336Z,6.50
2018-02-27T10:44:59.988Z,7.67
2018-02-27T10:47:26.601Z,5.60
2018-02-27T10:49:53.183Z,5.83
2018-02-27T10:52:19.870Z,4.80
2018-02-27T10:54:46.495Z,8.13
2018-02-27T10:57:13.124Z,5.90
2018-02-27T10:59:39.737Z,5.47
2018-02-27T11:02:07.203Z,6.60
2018-02-27T11:04:33.850Z,5.77
2018-02-27T11:07:00.469Z,7.50
2018-02-27T11:09:27.078Z,7.50
2018-02-27T11:11:53.671Z,5.87
2018-02-27T11:14:20.298Z,6.50
2018-02-27T11:16:46.916Z,6.30
2018-02-27T11:19:13.510Z,6.97
2018-02-27T11:21:40.155Z,6.23
2018-02-27T11:24:06.809Z,5.60
2018-02-27T11:26:33.457Z,6.63
2018-02-27T11:29:00.084Z,5.73
2018-02-27T11:31:26.738Z,5.90
2018-02-27T12:55:49.698Z,5.30
2018-02-27T12:58:16.346Z,5.23
2018-02-27T13:00:42.917Z,6.20
2018-02-27T13:03:09.529Z,6.77
2018-02-27T13:05:36.168Z,4.07
2018-02-27T13:08:02.781Z,6.20
2018-02-27T13:10:29.409Z,5.57
2018-02-27T13:12:56.211Z,5.40
2018-02-27T13:15:22.806Z,5.40
2018-02-27T13:17:49.473Z,5.33
2018-02-27T13:20:16.023Z,5.77
2018-02-27T13:22:42.642Z,5.63
2018-02-27T13:25:09.247Z,5.53
2018-02-27T13:27:35.911Z,6.33
2018-02-27T13:30:02.534Z,5.00
2018-02-27T13:32:29.184Z,5.50
2018-02-27T13:34:55.774Z,5.10
2018-02-27T13:37:22.376Z,5.27
2018-02-27T13:39:49.006Z,5.20
2018-02-27T13:42:15.670Z,6.10
2018-02-27T13:44:42.290Z,5.20
2018-02-27T13:47:08.862Z,4.50
2018-02-27T13:49:35.496Z,4.73
2018-02-27T13:52:02.097Z,5.20
2018-02-27T13:54:28.730Z,5.57
2018-02-27T13:56:55.340Z,5.87
2018-02-27T13:59:21.991Z,4.73
2018-02-27T14:01:48.585Z,4.57
2018-02-27T14:04:15.213Z,4.20
2018-02-27T14:06:41.804Z,5.00
2018-02-27T14:09:08.424Z,5.30
2018-02-27T14:11:35.022Z,4.90
2018-02-27T14:14:01.682Z,4.70
2018-02-27T14:16:28.276Z,5.93
2018-02-27T14:18:54.876Z,4.27
2018-02-27T14:21:21.491Z,5.03
2018-02-27T14:23:48.077Z,4.83
2018-02-27T14:26:14.700Z,4.30
2018-02-27T14:28:41.382Z,4.40
2018-02-27T14:31:07.964Z,4.20
2018-02-27T14:33:34.557Z,5.23
2018-02-27T14:36:01.213Z,5.63
2018-02-27T14:38:27.784Z,4.80
2018-02-27T14:40:54.503Z,4.70
2018-02-27T14:43:21.132Z,5.13
2018-02-27T14:45:47.741Z,4.90
2018-02-27T14:48:14.361Z,4.47
2018-02-27T14:50:40.994Z,4.73
2018-02-27T14:53:07.634Z,4.77
2018-02-27T14:55:34.222Z,3.87
2018-02-27T14:58:00.877Z,3.80
2018-02-27T15:00:27.456Z,4.90
2018-02-27T15:02:54.093Z,4.73
2018-02-27T15:05:20.772Z,6.27
2018-02-27T15:07:47.580Z,5.50
2018-02-27T15:10:14.173Z,4.40
2018-02-27T15:12:40.915Z,4.10
2018-02-27T15:15:07.511Z,4.70
2018-02-27T15:17:34.161Z,4.67
2018-02-27T15:20:00.855Z,5.17
2018-02-27T15:22:27.602Z,5.00
2018-02-27T15:24:54.377Z,5.50
2018-02-27T15:27:20.965Z,5.40
2018-02-27T15:29:47.589Z,4.10
2018-02-27T15:32:14.178Z,4.57
2018-02-27T15:34:40.863Z,4.67
2018-02-27T15:37:07.557Z,4.77
2018-02-27T15:39:34.144Z,4.40
2018-02-27T15:42:00.768Z,4.17
2018-02-27T15:44:27.354Z,4.30
2018-02-27T15:46:54.172Z,5.90
2018-02-27T15:49:20.819Z,4.60
2018-02-27T15:51:47.455Z,4.87
2018-02-27T15:54:14.422Z,4.80
2018-02-27T15:56:41.221Z,4.20
2018-02-27T15:59:07.833Z,4.53
2018-02-27T16:01:34.489Z,4.77
2018-02-27T16:04:01.129Z,4.83
2018-02-27T16:06:27.885Z,4.13
2018-02-27T16:08:54.532Z,4.40
2018-02-27T16:11:21.966Z,5.50
2018-02-27T16:13:48.617Z,4.50
2018-02-27T16:16:16.477Z,4.83
2018-02-27T16:18:43.491Z,4.43
2018-02-27T16:21:10.136Z,4.17
2018-02-27T16:23:36.891Z,4.27
2018-02-27T16:26:03.646Z,4.00
2018-02-27T16:28:30.302Z,4.70
2018-02-27T16:30:56.985Z,4.00
2018-02-27T16:33:23.670Z,4.97
2018-02-27T16:35:50.424Z,4.90
2018-02-27T16:38:17.130Z,5.17
2018-02-27T16:40:43.760Z,4.90
2018-02-27T16:43:10.422Z,5.70
2018-02-27T16:45:37.077Z,3.77
2018-02-27T16:48:03.726Z,4.30
2018-02-27T16:50:30.377Z,5.07
2018-02-27T16:52:57.269Z,4.63
2018-02-27T16:55:23.926Z,5.57
2018-02-27T16:57:50.532Z,4.70
2018-02-27T17:00:17.143Z,4.20
2018-02-27T17:02:43.743Z,5.10
2018-02-27T17:05:10.341Z,4.00
2018-02-27T17:07:36.972Z,4.47
2018-02-27T17:10:03.618Z,5.77
2018-02-27T17:12:30.195Z,5.30
2018-02-27T17:14:56.827Z,4.60
2018-02-27T17:17:23.477Z,4.00
2018-02-27T17:19:50.081Z,4.40
2018-02-27T17:22:16.685Z,4.60
2018-02-27T17:24:43.334Z,4.93
2018-02-27T17:27:09.961Z,4.80
2018-02-27T17:29:36.575Z,5.60
2018-02-27T17:32:03.281Z,5.03
2018-02-27T17:34:29.921Z,5.33
2018-02-27T17:36:56.543Z,5.50
2018-02-27T17:39:23.208Z,4.97
2018-02-27T17:41:49.886Z,5.37
2018-02-27T17:44:16.519Z,5.60
2018-02-27T17:46:43.346Z,5.50
2018-02-27T17:49:09.928Z,5.50
2018-02-27T17:51:36.551Z,5.27
2018-02-27T17:54:03.167Z,4.50
2018-02-27T17:56:29.750Z,5.63
2018-02-27T17:58:56.351Z,5.53
2018-02-27T18:01:22.967Z,5.80
2018-02-27T18:03:49.602Z,4.53
2018-02-27T18:06:16.257Z,5.50
2018-02-27T18:08:42.917Z,5.50
2018-02-27T18:11:09.801Z,4.43
2018-02-27T18:13:36.550Z,5.57
2018-02-27T18:16:03.349Z,4.90
2018-02-27T18:18:29.972Z,5.10
2018-02-27T18:20:56.713Z,5.13
2018-02-27T18:23:23.407Z,5.00
2018-02-27T18:25:50.087Z,5.10
2018-02-27T18:28:16.861Z,5.60
2018-02-27T18:30:43.547Z,3.90
2018-02-27T18:33:10.203Z,4.53
2018-02-27T18:35:36.951Z,4.80
2018-02-27T18:38:03.559Z,4.20
2018-02-27T18:40:30.345Z,4.90
2018-02-27T18:42:56.980Z,4.17
2018-02-27T18:45:23.657Z,5.80
2018-02-27T18:47:50.252Z,4.97
2018-02-27T18:50:17.018Z,5.13
2018-02-27T18:52:43.632Z,4.40
2018-02-27T18:55:10.319Z,5.87
2018-02-27T18:57:44.481Z,4.73
2018-02-27T19:00:11.285Z,4.27
2018-02-27T19:02:37.901Z,4.67
2018-02-27T19:05:04.559Z,4.43
2018-02-27T19:07:31.648Z,4.87
2018-02-27T19:09:58.376Z,5.20
2018-02-27T19:12:25.034Z,4.70
2018-02-27T19:14:51.675Z,4.20
2018-02-27T19:17:18.394Z,5.20
2018-02-27T19:19:44.975Z,5.20
2018-02-27T19:22:12.188Z,4.63
2018-02-27T19:24:38.821Z,5.10
2018-02-27T19:27:05.633Z,4.60
2018-02-27T19:29:32.412Z,5.43
2018-02-27T19:31:59.272Z,4.40
2018-02-27T19:34:26.111Z,5.33
2018-02-27T19:36:53.180Z,4.70
2018-02-27T19:39:20.516Z,4.80
2018-02-27T19:41:47.662Z,5.53
2018-02-27T19:44:14.333Z,4.70
2018-02-27T19:46:41.104Z,4.83
2018-02-27T19:49:07.749Z,4.57
2018-02-27T19:51:34.686Z,5.00
2018-02-27T19:54:01.753Z,4.60
2018-02-27T19:56:28.598Z,4.50
2018-02-27T19:58:55.269Z,4.60
2018-02-27T20:01:21.960Z,5.33
2018-02-27T20:03:48.544Z,4.43
2018-02-27T20:06:15.203Z,5.53
2018-02-27T20:08:41.815Z,5.70
2018-02-27T20:11:08.430Z,5.30
2018-02-27T20:13:35.063Z,5.27
2018-02-27T20:16:01.836Z,5.67
2018-02-27T20:18:28.427Z,5.47
2018-02-27T20:20:55.207Z,5.10
2018-02-27T20:23:27.414Z,5.40
2018-02-27T20:25:54.048Z,5.37
2018-02-27T20:28:26.459Z,4.77
2018-02-27T20:30:53.072Z,4.40
2018-02-27T20:33:20.425Z,4.60
2018-02-27T20:35:47.069Z,5.90
2018-02-27T20:38:13.719Z,4.77
2018-02-27T20:40:40.312Z,5.00
2018-02-27T20:43:06.931Z,4.93
2018-02-27T20:45:33.565Z,5.83
2018-02-27T20:48:01.998Z,5.40
2018-02-27T20:50:28.691Z,4.73
2018-02-27T20:52:55.584Z,5.57
2018-02-27T20:55:22.407Z,5.20
2018-02-27T20:57:49.201Z,5.17
2018-02-27T21:00:18.084Z,5.30
2018-02-27T21:02:47.593Z,4.67
2018-02-27T21:05:15.381Z,5.17
2018-02-27T21:07:42.409Z,4.80
2018-02-27T21:10:09.060Z,4.50
2018-02-27T21:12:37.082Z,4.37
2018-02-27T21:15:03.745Z,5.87
2018-02-27T21:17:31.015Z,5.30
2018-02-27T21:19:57.797Z,4.27
2018-02-27T21:22:24.820Z,5.97
2018-02-27T21:24:52.639Z,5.00
2018-02-27T21:27:19.249Z,4.93
2018-02-27T21:29:46.081Z,4.90
2018-02-27T21:32:13.046Z,4.20
2018-02-27T21:34:40.083Z,4.20
2018-02-27T21:37:07.038Z,4.40
2018-02-27T21:39:34.131Z,5.30
2018-02-27T21:42:00.977Z,5.00
2018-02-27T21:44:27.773Z,5.27
2018-02-27T21:46:54.424Z,5.27
2018-02-27T21:49:21.513Z,5.10
2018-02-27T21:51:48.121Z,5.63
2018-02-27T21:54:14.757Z,5.40
2018-02-27T21:56:41.407Z,5.40
2018-02-27T21:59:07.999Z,5.53
2018-02-27T22:01:34.995Z,5.43
2018-02-27T22:04:01.692Z,5.73
2018-02-27T22:06:28.357Z,5.57
2018-02-27T22:08:54.993Z,5.17
2018-02-27T22:11:21.645Z,6.20
2018-02-27T22:13:48.273Z,5.27
2018-02-27T22:16:14.914Z,5.57
2018-02-27T22:18:41.597Z,5.03
2018-02-27T22:21:09.670Z,5.30
2018-02-27T22:23:36.262Z,5.10
2018-02-27T22:26:02.896Z,5.07
2018-02-27T22:28:29.540Z,5.83
2018-02-27T22:30:56.600Z,4.90
2018-02-27T22:33:23.635Z,5.53
2018-02-27T22:35:50.205Z,4.80
2018-02-27T22:38:16.902Z,5.90
2018-02-27T22:40:43.510Z,6.20
2018-02-27T22:43:10.109Z,6.07
2018-02-27T22:45:36.914Z,5.87
2018-02-27T22:48:03.521Z,6.20
2018-02-27T22:50:30.119Z,5.77
2018-02-27T22:52:56.745Z,5.80
2018-02-27T22:55:23.367Z,6.03
2018-02-27T22:57:50.336Z,6.03
2018-02-27T23:00:22.784Z,6.40
2018-02-27T23:02:49.440Z,5.30
2018-02-27T23:05:16.041Z,5.90
2018-02-27T23:07:42.679Z,6.50
2018-02-27T23:10:09.370Z,5.63
2018-02-27T23:12:35.960Z,6.37
2018-02-27T23:15:02.601Z,6.30
2018-02-27T23:17:29.183Z,6.33
2018-02-27T23:19:55.796Z,6.60
2018-02-27T23:22:22.396Z,5.90
2018-02-27T23:24:54.878Z,7.60
2018-02-27T23:27:22.316Z,6.43
2018-02-27T23:29:49.997Z,5.87
2018-02-27T23:32:20.067Z,7.13
2018-02-27T23:34:53.933Z,8.13
2018-02-27T23:37:20.570Z,7.47
2018-02-27T23:39:47.163Z,6.10
2018-02-27T23:42:13.856Z,7.00
2018-02-27T23:44:40.431Z,6.10
2018-02-27T23:47:07.107Z,6.63
2018-02-27T23:49:33.696Z,7.20
2018-02-27T23:52:00.311Z,7.07
2018-02-27T23:54:26.982Z,6.83
2018-02-27T23:56:53.590Z,8.40
2018-02-27T23:59:20.232Z,7.40
